Time;durP1;ratioP1;P1;durP2;ratioP2;P2;SDS_P1;SDS_P2;PMS_P1;PMS_P2;Temp;Humidity;BMP_temperature;BMP_pressure;BME280_temperature;BME280_humidity;BME280_pressure;Samples;Min_cycle;Max_cycle;Signal;HPM_P1;HPM_P2
2024/01/16 00:01:44;;;;;;;5.10;2.97;;;;;;;-0.23;87.36;97500.25;5080898;28;20238;-78
2024/01/16 00:04:10;;;;;;;3.07;2.53;;;;;;;-0.20;87.73;97509.69;5080647;28;20211;-78
2024/01/16 00:06:39;;;;;;;5.53;3.10;;;;;;;-0.24;88.01;97515.88;5080348;28;20209;-78
2024/01/16 00:09:06;;;;;;;5.77;2.87;;;;;;;-0.25;87.80;97519.38;5081482;28;20199;-78
2024/01/16 00:11:32;;;;;;;5.63;2.97;;;;;;;-0.26;87.42;97517.69;5082240;28;20588;-78
2024/01/16 00:13:59;;;;;;;3.63;2.63;;;;;;;-0.28;88.45;97520.34;5081600;28;20207;-78
2024/01/16 00:16:26;;;;;;;4.07;2.87;;;;;;;-0.29;87.31;97507.41;5082044;28;20214;-79
2024/01/16 00:18:53;;;;;;;5.70;2.73;;;;;;;-0.34;87.41;97509.31;5082168;28;20257;-79
2024/01/16 00:21:20;;;;;;;6.40;2.57;;;;;;;-0.39;86.98;97516.44;5081642;28;20234;-79
2024/01/16 00:23:55;;;;;;;4.10;2.70;;;;;;;-0.40;86.64;97512.13;5081226;28;20207;-79
2024/01/16 00:26:22;;;;;;;3.13;2.67;;;;;;;-0.47;87.57;97518.44;5081917;28;20206;-79
2024/01/16 00:28:48;;;;;;;3.07;2.57;;;;;;;-0.57;87.81;97519.69;5084648;28;20208;-79
2024/01/16 00:31:15;;;;;;;4.90;2.60;;;;;;;-0.55;87.05;97528.25;5082130;28;20242;-79
2024/01/16 00:33:46;;;;;;;4.90;2.80;;;;;;;-0.64;87.54;97525.97;5087053;28;20217;-79
2024/01/16 00:36:14;;;;;;;4.23;2.90;;;;;;;-0.68;88.20;97525.22;5086861;28;20270;-78
2024/01/16 00:38:40;;;;;;;4.07;2.43;;;;;;;-0.67;88.47;97523.50;5084715;28;20234;-79
2024/01/16 00:41:07;;;;;;;3.83;2.80;;;;;;;-0.72;88.58;97533.19;5084554;28;20211;-78
2024/01/16 00:43:35;;;;;;;4.37;2.70;;;;;;;-0.71;88.46;97535.72;5076616;28;20219;-78
2024/01/16 00:46:01;;;;;;;3.33;2.47;;;;;;;-0.72;89.25;97548.75;5073350;28;20206;-77
2024/01/16 00:48:28;;;;;;;4.13;2.67;;;;;;;-0.73;90.00;97542.72;5073321;28;20203;-77
2024/01/16 00:50:55;;;;;;;3.67;2.50;;;;;;;-0.78;89.48;97536.84;5073322;28;20616;-77
2024/01/16 00:53:23;;;;;;;3.97;2.57;;;;;;;-0.79;89.85;97534.28;5073610;28;20207;-79
2024/01/16 00:55:50;;;;;;;4.23;2.87;;;;;;;-0.82;89.87;97534.38;5072784;28;20231;-77
2024/01/16 00:58:16;;;;;;;5.80;2.83;;;;;;;-0.83;90.46;97530.97;5072966;28;20709;-77
2024/01/16 01:00:43;;;;;;;4.87;3.00;;;;;;;-0.90;91.16;97533.81;5076062;28;20211;-77
2024/01/16 01:03:09;;;;;;;4.33;3.03;;;;;;;-1.05;91.51;97544.69;5076058;28;20228;-78
2024/01/16 01:05:36;;;;;;;4.43;2.90;;;;;;;-1.11;92.04;97544.91;5076373;28;20207;-78
2024/01/16 01:08:02;;;;;;;3.37;2.87;;;;;;;-1.10;92.23;97551.78;5074776;28;20215;-77
2024/01/16 01:10:32;;;;;;;3.70;2.83;;;;;;;-1.08;92.64;97550.84;5072644;28;20229;-78
2024/01/16 01:12:59;;;;;;;5.00;2.70;;;;;;;-1.09;93.10;97558.66;5073500;28;20562;-77
2024/01/16 01:15:26;;;;;;;3.87;3.03;;;;;;;-1.04;93.68;97557.59;5075075;28;20310;-77
2024/01/16 01:17:54;;;;;;;3.47;2.77;;;;;;;-1.04;93.37;97552.41;5072890;28;20294;-77
2024/01/16 01:20:20;;;;;;;5.63;3.23;;;;;;;-0.98;93.46;97565.16;5073937;28;20223;-78
2024/01/16 01:22:47;;;;;;;4.33;2.97;;;;;;;-0.94;92.97;97552.94;5073242;28;20227;-78
2024/01/16 01:25:14;;;;;;;4.67;3.23;;;;;;;-0.95;93.66;97561.63;5073021;28;20706;-78
2024/01/16 01:27:41;;;;;;;3.97;2.70;;;;;;;-0.92;93.15;97556.34;5072148;28;20207;-77
2024/01/16 01:30:09;;;;;;;4.93;3.23;;;;;;;-0.93;93.83;97563.28;5075378;28;20216;-77
2024/01/16 01:32:36;;;;;;;6.33;3.43;;;;;;;-0.93;93.76;97562.44;5075410;28;20227;-77
2024/01/16 01:35:02;;;;;;;5.73;3.17;;;;;;;-0.94;93.69;97568.50;5075106;28;20222;-77
2024/01/16 01:37:29;;;;;;;6.13;2.77;;;;;;;-0.92;93.46;97577.09;5075182;28;20252;-77
2024/01/16 01:39:55;;;;;;;4.27;2.70;;;;;;;-1.00;93.60;97579.13;5075671;28;20247;-77
2024/01/16 01:42:22;;;;;;;3.90;2.83;;;;;;;-1.05;94.10;97581.00;5075718;28;20231;-77
2024/01/16 01:44:50;;;;;;;4.93;3.40;;;;;;;-1.03;93.89;97574.00;5076214;28;20600;-78
2024/01/16 01:47:16;;;;;;;4.87;3.13;;;;;;;-1.13;94.00;97586.44;5075006;28;20215;-77
2024/01/16 01:49:43;;;;;;;4.20;3.07;;;;;;;-1.19;94.15;97584.03;5074674;28;20211;-77
2024/01/16 01:52:11;;;;;;;3.80;2.53;;;;;;;-1.23;94.41;97591.97;5075364;28;20291;-78
2024/01/16 01:54:39;;;;;;;6.60;3.20;;;;;;;-1.24;94.70;97590.25;5074961;28;20231;-78
2024/01/16 01:57:08;;;;;;;4.20;2.83;;;;;;;-1.29;94.15;97592.16;5074473;28;20359;-77
2024/01/16 01:59:35;;;;;;;5.17;3.10;;;;;;;-1.27;95.24;97592.94;5074620;28;20234;-77
2024/01/16 02:02:05;;;;;;;4.87;3.27;;;;;;;-1.32;95.70;97595.69;5075534;28;20250;-78
2024/01/16 02:04:32;;;;;;;5.17;3.23;;;;;;;-1.29;95.21;97605.09;5075266;28;20210;-77
2024/01/16 02:06:59;;;;;;;4.93;3.40;;;;;;;-1.20;96.01;97597.03;5074038;28;20704;-78
2024/01/16 02:09:25;;;;;;;5.53;3.20;;;;;;;-1.14;95.59;97589.91;5071512;28;20214;-77
2024/01/16 02:11:52;;;;;;;5.00;3.10;;;;;;;-1.10;95.28;97582.88;5071848;28;20230;-78
2024/01/16 02:14:19;;;;;;;6.77;3.30;;;;;;;-1.07;94.76;97578.44;5071660;28;20214;-77
2024/01/16 02:16:45;;;;;;;5.83;3.57;;;;;;;-1.06;94.52;97584.50;5071282;28;20278;-77
2024/01/16 02:19:13;;;;;;;5.93;3.27;;;;;;;-1.11;94.81;97586.38;5071761;28;20728;-78
2024/01/16 02:21:42;;;;;;;4.97;3.47;;;;;;;-1.20;94.98;97591.84;5074328;28;20331;-78
2024/01/16 02:24:11;;;;;;;5.73;3.47;;;;;;;-1.26;95.20;97607.59;5073872;28;20214;-78
2024/01/16 02:26:37;;;;;;;4.67;2.60;;;;;;;-1.27;94.81;97591.22;5073846;28;20511;-78
2024/01/16 02:29:04;;;;;;;6.83;3.33;;;;;;;-1.36;95.29;97598.44;5074082;28;20200;-78
2024/01/16 02:31:31;;;;;;;4.77;3.20;;;;;;;-1.36;96.20;97598.44;5074184;28;20235;-78
2024/01/16 02:33:58;;;;;;;6.13;3.10;;;;;;;-1.38;95.87;97592.41;5074682;28;20210;-78
2024/01/16 02:36:24;;;;;;;4.50;3.13;;;;;;;-1.45;97.06;97601.28;5073777;28;20214;-78
2024/01/16 02:38:51;;;;;;;4.63;3.00;;;;;;;-1.53;97.24;97592.91;5074373;28;20604;-78
2024/01/16 02:41:19;;;;;;;5.53;3.10;;;;;;;-1.54;98.17;97606.75;5074235;28;20246;-78
2024/01/16 02:43:46;;;;;;;4.83;2.90;;;;;;;-1.56;97.37;97604.19;5074502;28;20221;-78
2024/01/16 02:46:13;;;;;;;4.80;2.67;;;;;;;-1.65;98.20;97608.81;5074119;28;20586;-78
2024/01/16 02:48:40;;;;;;;5.20;3.13;;;;;;;-1.62;98.14;97616.47;5074497;28;20211;-78
2024/01/16 02:51:06;;;;;;;4.60;3.13;;;;;;;-1.57;98.55;97617.19;5073799;28;20676;-78
2024/01/16 02:53:33;;;;;;;5.27;3.23;;;;;;;-1.63;98.18;97615.66;5074312;28;20587;-78
2024/01/16 02:55:59;;;;;;;4.50;2.87;;;;;;;-1.63;98.13;97617.38;5074000;28;20638;-78
2024/01/16 02:58:27;;;;;;;5.07;3.10;;;;;;;-1.67;98.96;97626.16;5074615;28;20206;-78
2024/01/16 03:00:54;;;;;;;5.20;3.10;;;;;;;-1.72;98.38;97617.66;5074795;28;20230;-80
2024/01/16 03:03:20;;;;;;;4.60;3.10;;;;;;;-1.76;99.17;97626.41;5073116;28;20321;-78
2024/01/16 03:05:47;;;;;;;5.37;3.30;;;;;;;-1.80;100.00;97625.66;5073227;28;20392;-78
2024/01/16 03:08:14;;;;;;;4.27;3.10;;;;;;;-1.84;100.00;97639.56;5075056;28;20697;-78
2024/01/16 03:10:41;;;;;;;5.33;2.97;;;;;;;-1.87;100.00;97636.22;5075914;28;20326;-78
2024/01/16 03:13:07;;;;;;;3.53;2.60;;;;;;;-1.88;100.00;97635.38;5074957;28;20241;-77
2024/01/16 03:15:35;;;;;;;4.90;3.40;;;;;;;-1.89;100.00;97635.41;5074949;28;20210;-77
2024/01/16 03:18:02;;;;;;;7.77;4.07;;;;;;;-1.95;100.00;97635.59;5074234;28;20213;-77
2024/01/16 03:20:28;;;;;;;4.77;3.10;;;;;;;-2.00;100.00;97643.50;5075144;28;20705;-77
2024/01/16 03:22:55;;;;;;;3.97;2.97;;;;;;;-2.05;100.00;97634.13;5075455;28;20254;-77
2024/01/16 03:25:22;;;;;;;4.40;3.40;;;;;;;-2.10;100.00;97636.00;5077689;28;20214;-78
2024/01/16 03:27:48;;;;;;;4.67;2.57;;;;;;;-2.09;100.00;97629.97;5077136;28;20297;-78
2024/01/16 03:30:16;;;;;;;5.60;3.17;;;;;;;-2.01;100.00;97631.44;5077700;28;20335;-78
2024/01/16 03:32:44;;;;;;;4.47;2.80;;;;;;;-2.00;100.00;97637.47;5077151;28;20252;-78
2024/01/16 03:35:11;;;;;;;9.60;3.50;;;;;;;-2.04;100.00;97631.53;5077711;28;20210;-77
2024/01/16 03:37:38;;;;;;;4.27;3.40;;;;;;;-2.01;100.00;97638.34;5076519;28;20215;-79
2024/01/16 03:40:07;;;;;;;9.07;3.20;;;;;;;-1.99;100.00;97640.00;5074214;28;20242;-79
2024/01/16 03:42:33;;;;;;;7.13;3.90;;;;;;;-1.96;100.00;97634.72;5074679;28;20288;-79
2024/01/16 03:45:00;;;;;;;4.23;2.70;;;;;;;-1.95;100.00;97630.41;5074694;28;20221;-79
2024/01/16 03:47:26;;;;;;;5.93;3.63;;;;;;;-1.96;100.00;97624.38;5077262;28;20213;-77
2024/01/16 03:49:54;;;;;;;6.07;3.87;;;;;;;-1.96;100.00;97623.53;5074534;28;20202;-78
2024/01/16 03:52:21;;;;;;;7.30;3.30;;;;;;;-1.92;100.00;97625.13;5076301;28;20234;-78
2024/01/16 03:54:47;;;;;;;7.83;3.17;;;;;;;-1.91;100.00;97606.16;5076798;28;20686;-78
2024/01/16 03:57:14;;;;;;;4.27;3.20;;;;;;;-1.91;100.00;97606.16;5076286;28;20210;-78
2024/01/16 03:59:40;;;;;;;4.10;3.17;;;;;;;-1.92;100.00;97600.09;5075835;28;20238;-79
2024/01/16 04:02:07;;;;;;;5.10;3.40;;;;;;;-1.92;99.42;97597.50;5076385;28;20689;-77
2024/01/16 04:04:33;;;;;;;6.97;3.07;;;;;;;-1.96;99.54;97600.25;5074082;28;20217;-77
2024/01/16 04:07:01;;;;;;;4.83;3.50;;;;;;;-2.01;99.72;97599.53;5074240;28;20681;-77
2024/01/16 04:09:27;;;;;;;5.63;3.20;;;;;;;-2.06;100.00;97603.97;5076820;28;20211;-78
2024/01/16 04:11:54;;;;;;;6.60;3.30;;;;;;;-2.10;99.97;97610.13;5076747;28;20234;-78
2024/01/16 04:14:21;;;;;;;6.43;3.23;;;;;;;-2.08;100.00;97603.19;5077097;28;20210;-77
2024/01/16 04:16:49;;;;;;;5.73;3.33;;;;;;;-2.11;100.00;97616.19;5077005;28;20574;-78
2024/01/16 04:19:18;;;;;;;5.40;3.37;;;;;;;-2.10;100.00;97610.97;5076369;28;20218;-78
2024/01/16 04:21:44;;;;;;;5.13;3.23;;;;;;;-2.19;100.00;97605.22;5076403;28;20233;-79
2024/01/16 04:24:12;;;;;;;7.07;3.80;;;;;;;-2.17;100.00;97598.25;5073673;28;20207;-77
2024/01/16 04:26:40;;;;;;;3.87;3.17;;;;;;;-2.16;100.00;97610.28;5073851;28;20215;-78
2024/01/16 04:29:08;;;;;;;4.93;2.97;;;;;;;-2.18;100.00;97604.31;5073935;28;20217;-77
2024/01/16 04:31:40;;;;;;;5.10;3.57;;;;;;;-2.18;100.00;97601.72;5073847;28;20246;-79
2024/01/16 04:34:07;;;;;;;7.73;3.40;;;;;;;-2.20;100.00;97598.34;5074582;28;20275;-77
2024/01/16 04:36:33;;;;;;;4.03;2.87;;;;;;;-2.27;100.00;97602.81;5074944;28;20217;-79
2024/01/16 04:39:04;;;;;;;7.90;3.33;;;;;;;-2.18;99.54;97596.53;5075585;28;20323;-78
2024/01/16 04:41:31;;;;;;;6.87;3.13;;;;;;;-2.20;99.45;97599.16;5075261;28;20227;-79
2024/01/16 04:43:58;;;;;;;4.80;3.10;;;;;;;-2.21;99.16;97604.41;5073544;28;20221;-77
2024/01/16 04:46:24;;;;;;;5.73;3.50;;;;;;;-2.20;99.58;97603.53;5074880;28;20213;-78
2024/01/16 04:48:51;;;;;;;4.60;3.17;;;;;;;-2.22;99.03;97600.97;5075287;28;20696;-77
2024/01/16 04:51:17;;;;;;;5.70;3.47;;;;;;;-2.23;98.89;97588.91;5075006;28;20233;-78
2024/01/16 04:53:45;;;;;;;6.77;3.03;;;;;;;-2.32;99.08;97593.50;5074713;28;20218;-77
2024/01/16 04:56:11;;;;;;;6.17;2.90;;;;;;;-2.38;100.00;97593.66;5074436;28;20220;-78
2024/01/16 04:58:41;;;;;;;6.30;3.47;;;;;;;-2.42;100.00;97592.03;5076003;28;20244;-78
2024/01/16 05:01:10;;;;;;;5.97;3.20;;;;;;;-2.43;100.00;97595.53;5076262;28;20740;-78
2024/01/16 05:03:36;;;;;;;5.93;3.70;;;;;;;-2.45;100.00;97594.72;5075842;28;20212;-78
2024/01/16 05:06:05;;;;;;;8.00;3.53;;;;;;;-2.50;100.00;97596.59;5075144;28;20225;-78
2024/01/16 05:08:32;;;;;;;5.13;3.03;;;;;;;-2.54;100.00;97600.13;5075345;28;20220;-78
2024/01/16 05:10:59;;;;;;;4.93;3.40;;;;;;;-2.53;100.00;97605.28;5075683;28;20213;-78
2024/01/16 05:13:25;;;;;;;5.93;3.33;;;;;;;-2.54;100.00;97601.00;5075370;28;20218;-78
2024/01/16 05:15:53;;;;;;;6.10;2.97;;;;;;;-2.53;100.00;97599.22;5074968;28;20313;-78
2024/01/16 05:18:20;;;;;;;5.43;2.53;;;;;;;-2.47;100.00;97599.94;5075541;28;20211;-78
2024/01/16 05:20:46;;;;;;;4.07;2.73;;;;;;;-2.41;100.00;97606.66;5074870;28;20234;-78
2024/01/16 05:23:13;;;;;;;3.73;2.70;;;;;;;-2.35;100.00;97596.16;5075049;28;20244;-78
2024/01/16 05:25:39;;;;;;;3.47;2.73;;;;;;;-2.35;100.00;97590.97;5075456;28;20219;-78
2024/01/16 05:28:06;;;;;;;3.90;2.53;;;;;;;-2.43;99.25;97590.34;5075185;28;20340;-78
2024/01/16 05:30:33;;;;;;;4.27;3.17;;;;;;;-2.59;99.46;97584.75;5075296;28;20305;-78
2024/01/16 05:33:01;;;;;;;5.37;2.63;;;;;;;-2.74;99.70;97582.56;5074521;28;20226;-78
2024/01/16 05:35:28;;;;;;;6.57;3.13;;;;;;;-2.84;100.00;97577.66;5075742;28;20209;-78
2024/01/16 05:37:55;;;;;;;5.60;3.13;;;;;;;-2.89;100.00;97585.53;5075636;28;20207;-78
2024/01/16 05:40:22;;;;;;;7.50;3.57;;;;;;;-2.89;100.00;97585.53;5075327;28;20284;-78
2024/01/16 05:42:49;;;;;;;5.30;3.60;;;;;;;-2.83;100.00;97584.50;5074561;28;20231;-78
2024/01/16 05:45:16;;;;;;;4.23;2.53;;;;;;;-2.90;100.00;97589.00;5075255;28;20230;-78
2024/01/16 05:47:42;;;;;;;4.93;3.17;;;;;;;-2.88;100.00;97584.63;5075726;28;20213;-78
2024/01/16 05:50:10;;;;;;;4.77;3.00;;;;;;;-2.83;100.00;97579.34;5075516;28;20209;-78
2024/01/16 05:52:37;;;;;;;5.90;3.03;;;;;;;-2.81;100.00;97582.75;5074808;28;20234;-78
2024/01/16 05:55:05;;;;;;;4.70;2.83;;;;;;;-2.85;100.00;97581.13;5075095;28;20226;-78
2024/01/16 05:57:34;;;;;;;4.30;2.83;;;;;;;-2.80;100.00;97574.09;5074408;28;20209;-78
2024/01/16 06:00:02;;;;;;;5.20;2.73;;;;;;;-2.72;100.00;97572.16;5074773;28;20226;-78
2024/01/16 06:02:30;;;;;;;4.70;2.87;;;;;;;-2.62;100.00;97578.81;5074544;28;20709;-78
2024/01/16 06:04:56;;;;;;;5.83;2.83;;;;;;;-2.61;100.00;97581.34;5074544;28;20218;-78
2024/01/16 06:07:24;;;;;;;6.10;3.23;;;;;;;-2.62;100.00;97573.63;5074638;28;20209;-78
2024/01/16 06:09:51;;;;;;;4.47;3.13;;;;;;;-2.67;100.00;97575.47;5074792;28;20214;-78
2024/01/16 06:12:17;;;;;;;4.17;2.77;;;;;;;-2.66;100.00;97572.88;5074473;28;20234;-78
2024/01/16 06:14:44;;;;;;;2.97;2.63;;;;;;;-2.61;100.00;97572.72;5074628;28;20218;-78
2024/01/16 06:17:10;;;;;;;4.43;2.90;;;;;;;-2.54;100.00;97567.38;5074061;28;20293;-78
2024/01/16 06:19:37;;;;;;;5.27;3.40;;;;;;;-2.45;100.00;97574.03;5075199;28;20250;-78
2024/01/16 06:22:03;;;;;;;3.53;2.80;;;;;;;-2.42;100.00;97572.22;5073604;28;20226;-79
2024/01/16 06:24:36;;;;;;;5.13;3.03;;;;;;;-2.42;100.00;97566.16;5071756;28;20218;-77
2024/01/16 06:27:03;;;;;;;4.57;2.97;;;;;;;-2.38;100.00;97560.03;5073819;28;20206;-78
2024/01/16 06:29:30;;;;;;;5.00;3.07;;;;;;;-2.46;100.00;97569.75;5076464;28;20213;-78
2024/01/16 06:31:56;;;;;;;5.57;3.17;;;;;;;-2.52;100.00;97564.75;5074305;28;20223;-79
2024/01/16 06:34:23;;;;;;;3.57;2.57;;;;;;;-2.57;100.00;97561.44;5071594;28;20217;-77
2024/01/16 06:36:49;;;;;;;4.30;3.27;;;;;;;-2.57;100.00;97572.59;5071308;28;20564;-77
2024/01/16 06:39:16;;;;;;;4.37;2.93;;;;;;;-2.54;100.00;97571.69;5073346;28;20221;-78
2024/01/16 06:41:43;;;;;;;5.33;3.40;;;;;;;-2.53;100.00;97573.38;5073311;28;20694;-77
2024/01/16 06:44:10;;;;;;;4.93;2.90;;;;;;;-2.45;100.00;97572.28;5074059;28;20209;-77
2024/01/16 06:46:36;;;;;;;6.20;3.40;;;;;;;-2.45;100.00;97572.28;5073959;28;20211;-77
2024/01/16 06:49:03;;;;;;;5.50;2.80;;;;;;;-2.45;100.00;97576.63;5074712;28;20216;-77
2024/01/16 06:51:29;;;;;;;3.57;2.53;;;;;;;-2.49;100.00;97569.81;5071589;28;20331;-77
2024/01/16 06:53:56;;;;;;;6.57;3.60;;;;;;;-2.48;100.00;97571.50;5071233;28;20594;-78
2024/01/16 06:56:24;;;;;;;6.47;3.33;;;;;;;-2.46;100.00;97580.09;5071261;28;20211;-79
2024/01/16 06:58:52;;;;;;;5.27;3.20;;;;;;;-2.36;100.00;97579.81;5071043;28;20213;-77
2024/01/16 07:01:19;;;;;;;4.30;2.83;;;;;;;-2.27;100.00;97570.94;5071033;28;20235;-77
2024/01/16 07:03:45;;;;;;;5.13;2.73;;;;;;;-2.23;100.00;97572.53;5071428;28;20213;-79
2024/01/16 07:06:12;;;;;;;4.03;2.67;;;;;;;-2.20;99.38;97572.47;5071662;28;20231;-78
2024/01/16 07:08:38;;;;;;;5.73;2.63;;;;;;;-2.16;99.02;97571.47;5073525;28;20257;-79
2024/01/16 07:11:07;;;;;;;4.87;2.70;;;;;;;-2.23;98.20;97567.34;5071046;28;20674;-77
2024/01/16 07:13:34;;;;;;;4.73;3.00;;;;;;;-2.27;98.67;97566.59;5073341;28;20215;-79
2024/01/16 07:16:02;;;;;;;4.30;2.80;;;;;;;-2.25;98.29;97569.16;5078884;28;20215;-81
2024/01/16 07:18:29;;;;;;;7.00;2.70;;;;;;;-2.27;97.87;97563.19;5075216;28;20213;-76
2024/01/16 07:20:57;;;;;;;6.10;2.90;;;;;;;-2.26;97.34;97552.75;5070576;28;20239;-76
2024/01/16 07:23:23;;;;;;;4.77;2.73;;;;;;;-2.27;97.63;97564.00;5070643;28;20215;-76
2024/01/16 07:25:50;;;;;;;5.50;3.30;;;;;;;-2.22;96.65;97558.69;5069415;28;20422;-77
2024/01/16 07:28:17;;;;;;;4.17;2.50;;;;;;;-2.21;96.88;97556.06;5070587;28;20448;-77
2024/01/16 07:30:43;;;;;;;4.50;2.30;;;;;;;-2.19;95.94;97548.28;5070547;28;20213;-77
2024/01/16 07:33:11;;;;;;;7.37;2.90;;;;;;;-2.18;95.60;97557.72;5070794;28;20426;-76
2024/01/16 07:35:40;;;;;;;5.00;3.00;;;;;;;-2.18;95.54;97549.97;5070524;28;20210;-77
2024/01/16 07:38:07;;;;;;;4.20;2.63;;;;;;;-2.24;94.80;97551.00;5070083;28;20215;-76
2024/01/16 07:40:34;;;;;;;4.40;2.73;;;;;;;-2.19;94.50;97543.09;5070568;28;20327;-76
2024/01/16 07:43:01;;;;;;;4.33;2.50;;;;;;;-2.20;93.77;97544.00;5074564;28;20239;-78
2024/01/16 07:45:27;;;;;;;3.30;2.33;;;;;;;-2.20;93.33;97544.00;5077798;28;20215;-79
2024/01/16 07:47:54;;;;;;;3.87;2.60;;;;;;;-2.17;93.85;97541.31;5076895;28;20210;-79
2024/01/16 07:50:22;;;;;;;4.03;2.23;;;;;;;-2.18;93.69;97547.38;5076418;28;20210;-79
2024/01/16 07:52:48;;;;;;;4.67;2.13;;;;;;;-2.18;93.53;97539.59;5076220;28;20234;-80
2024/01/16 07:55:15;;;;;;;3.87;2.43;;;;;;;-2.13;92.21;97532.56;5078462;28;20206;-78
2024/01/16 07:57:41;;;;;;;6.20;2.50;;;;;;;-2.09;92.46;97531.59;5080463;28;20259;-78
2024/01/16 08:00:11;;;;;;;4.33;2.70;;;;;;;-2.06;92.33;97531.50;5081539;28;20611;-79
2024/01/16 08:02:38;;;;;;;3.23;2.33;;;;;;;-2.00;91.97;97544.25;5082233;28;20238;-79
2024/01/16 08:05:06;;;;;;;4.10;2.80;;;;;;;-1.96;90.34;97527.75;5065376;28;20267;-80
2024/01/16 08:07:34;;;;;;;5.00;2.40;;;;;;;-1.96;90.52;97526.00;5063134;28;20218;-79
2024/01/16 08:10:01;;;;;;;4.00;2.43;;;;;;;-1.93;89.70;97520.72;5061725;28;20235;-81
2024/01/16 08:12:27;;;;;;;5.10;2.83;;;;;;;-1.84;89.57;97519.63;5064882;28;20432;-78
2024/01/16 08:14:54;;;;;;;5.87;2.83;;;;;;;-1.75;89.20;97524.50;5072268;28;20209;-79
2024/01/16 08:17:20;;;;;;;4.10;3.03;;;;;;;-1.74;88.43;97513.25;5074115;28;20375;-79
2024/01/16 08:19:47;;;;;;;3.73;2.30;;;;;;;-1.67;87.87;97519.94;5072958;28;20208;-79
2024/01/16 08:22:13;;;;;;;2.80;2.27;;;;;;;-1.67;88.09;97522.53;5071140;28;20228;-80
2024/01/16 08:24:41;;;;;;;2.53;2.13;;;;;;;-1.62;87.30;97515.44;5066785;28;20214;-79
2024/01/16 08:27:07;;;;;;;3.83;2.30;;;;;;;-1.57;87.27;97508.38;5058053;28;20566;-79
2024/01/16 08:29:34;;;;;;;3.70;2.40;;;;;;;-1.52;86.82;97522.06;5057839;28;20216;-79
2024/01/16 08:32:01;;;;;;;4.22;2.53;;;;;;;-1.47;85.81;97518.41;5058614;28;20387;-79
2024/01/16 08:34:27;;;;;;;4.00;2.70;;;;;;;-1.41;85.85;97517.38;5059134;28;20215;-79
2024/01/16 08:36:56;;;;;;;4.53;2.63;;;;;;;-1.42;84.49;97513.09;5058152;28;20211;-79
2024/01/16 08:39:23;;;;;;;3.90;2.10;;;;;;;-1.39;85.37;97523.34;5054998;28;20280;-79
2024/01/16 08:41:51;;;;;;;2.93;2.20;;;;;;;-1.32;85.40;97522.25;5053807;28;20239;-80
2024/01/16 08:44:17;;;;;;;2.87;1.83;;;;;;;-1.28;84.33;97519.53;5053381;28;20652;-80
2024/01/16 08:46:44;;;;;;;4.77;2.40;;;;;;;-1.22;84.74;97524.50;5058917;28;20212;-79
2024/01/16 08:49:11;;;;;;;3.10;2.30;;;;;;;-1.17;84.09;97532.97;5065351;28;20212;-79
2024/01/16 08:51:38;;;;;;;3.53;2.07;;;;;;;-1.19;84.19;97532.19;5064808;28;20224;-79
2024/01/16 08:54:05;;;;;;;4.77;2.60;;;;;;;-1.03;84.20;97532.53;5066468;28;20212;-79
2024/01/16 08:56:31;;;;;;;4.10;2.63;;;;;;;-0.94;84.25;97537.38;5063064;28;20369;-79
2024/01/16 08:58:59;;;;;;;5.57;2.47;;;;;;;-0.89;84.74;97545.88;5065594;28;20219;-79
2024/01/16 09:01:26;;;;;;;2.83;2.20;;;;;;;-0.88;83.43;97542.38;5065978;28;20232;-79
2024/01/16 09:03:52;;;;;;;4.73;2.63;;;;;;;-0.80;83.39;97550.75;5064295;28;20229;-81
2024/01/16 09:06:19;;;;;;;4.43;2.67;;;;;;;-0.79;82.23;97544.66;5079518;28;20212;-80
2024/01/16 09:08:45;;;;;;;4.50;2.80;;;;;;;-0.70;82.79;97546.94;5085251;28;20199;-79
2024/01/16 09:11:12;;;;;;;3.93;2.83;;;;;;;-0.71;82.30;97546.09;5077834;28;20883;-79
2024/01/16 09:13:38;;;;;;;4.20;2.50;;;;;;;-0.62;81.76;97539.75;5083516;28;20257;-79
2024/01/16 09:16:06;;;;;;;3.77;2.50;;;;;;;-0.51;81.01;97537.63;5082419;28;20217;-79
2024/01/16 09:18:33;;;;;;;3.57;2.60;;;;;;;-0.51;81.50;97529.84;5081949;28;20220;-79
2024/01/16 09:21:00;;;;;;;5.07;2.70;;;;;;;-0.48;81.43;97534.91;5077788;28;20596;-79
2024/01/16 09:23:26;;;;;;;3.50;2.50;;;;;;;-0.42;81.06;97538.16;5080250;28;20207;-79
2024/01/16 09:25:53;;;;;;;4.13;2.90;;;;;;;-0.40;81.03;97535.50;5082635;28;20207;-79
2024/01/16 09:28:19;;;;;;;4.70;2.43;;;;;;;-0.36;80.25;97537.09;5083147;28;20215;-79
2024/01/16 09:30:45;;;;;;;4.60;2.60;;;;;;;-0.25;79.79;97534.94;5083693;28;20211;-78
2024/01/16 09:33:15;;;;;;;3.40;2.27;;;;;;;-0.18;79.35;97537.28;5083587;28;20231;-79
2024/01/16 09:35:42;;;;;;;4.07;2.50;;;;;;;-0.13;79.12;97538.78;5084165;28;20210;-79
2024/01/16 09:38:09;;;;;;;4.00;2.33;;;;;;;-0.07;79.13;97535.97;5082466;28;20220;-79
2024/01/16 09:40:35;;;;;;;6.23;3.13;;;;;;;0.06;78.77;97534.59;5082844;28;20207;-79
2024/01/16 09:43:04;;;;;;;4.30;2.40;;;;;;;0.11;77.95;97524.91;5083092;28;20227;-79
2024/01/16 09:45:31;;;;;;;4.40;2.83;;;;;;;0.11;77.37;97527.50;5084510;28;20207;-79
2024/01/16 09:48:00;;;;;;;4.83;2.20;;;;;;;0.13;77.34;97517.88;5082157;28;20218;-79
2024/01/16 09:50:28;;;;;;;2.77;2.30;;;;;;;0.19;76.82;97528.03;5082270;28;20313;-79
2024/01/16 09:52:54;;;;;;;3.03;2.27;;;;;;;0.26;76.05;97524.31;5082405;28;20232;-79
2024/01/16 09:55:21;;;;;;;3.70;2.23;;;;;;;0.39;76.03;97522.09;5082535;28;20578;-79
2024/01/16 09:57:55;;;;;;;3.90;2.40;;;;;;;0.51;75.62;97509.44;5082767;28;20230;-78
2024/01/16 10:00:23;;;;;;;4.10;2.30;;;;;;;0.67;74.74;97515.72;5079401;28;20585;-78
2024/01/16 10:02:51;;;;;;;6.30;2.40;;;;;;;0.84;74.45;97515.91;5079167;28;20736;-80
2024/01/16 10:05:20;;;;;;;4.53;2.47;;;;;;;0.90;73.78;97513.06;5077991;28;20203;-78
2024/01/16 10:07:50;;;;;;;4.65;2.50;;;;;;;0.96;74.05;97517.16;5076895;28;20456;-78
2024/01/16 10:10:18;;;;;;;5.10;3.08;;;;;;;0.97;73.38;97509.28;5075461;28;20432;-79
2024/01/16 10:12:44;;;;;;;5.47;3.13;;;;;;;1.03;73.58;97509.03;5080770;28;20449;-79
2024/01/16 10:15:11;;;;;;;4.77;2.60;;;;;;;1.00;72.75;97503.94;5081768;28;20212;-79
2024/01/16 10:17:39;;;;;;;2.77;2.27;;;;;;;1.03;72.94;97498.63;5081735;28;20218;-79
2024/01/16 10:20:07;;;;;;;5.17;2.80;;;;;;;1.08;72.59;97496.69;5082614;28;20209;-79
2024/01/16 10:22:33;;;;;;;6.43;2.67;;;;;;;1.03;71.37;97483.03;5082666;28;20241;-79
2024/01/16 10:25:09;;;;;;;4.45;2.88;;;;;;;1.05;70.24;97465.56;5085296;28;20434;-79
2024/01/16 10:27:37;;;;;;;3.77;2.37;;;;;;;1.00;69.80;97451.91;5082734;28;20234;-79
2024/01/16 10:30:04;;;;;;;3.37;2.40;;;;;;;0.91;69.75;97457.50;5081277;28;20218;-78
2024/01/16 10:32:32;;;;;;;4.67;2.37;;;;;;;0.86;69.34;97459.47;5082968;28;20229;-79
2024/01/16 10:35:06;;;;;;;5.50;2.50;;;;;;;0.86;69.50;97446.44;5084306;28;20246;-79
2024/01/16 10:37:42;;;;;;;6.67;2.57;;;;;;;0.83;71.46;97464.81;5082188;28;20239;-79
2024/01/16 10:40:11;;;;;;;5.43;2.73;;;;;;;0.82;72.47;97467.47;5082877;28;20211;-79
2024/01/16 10:42:40;;;;;;;4.53;2.83;;;;;;;0.92;72.62;97481.78;5082114;28;20236;-79
2024/01/16 10:45:07;;;;;;;6.10;3.67;;;;;;;0.99;72.17;97483.22;5082401;28;20440;-79
2024/01/16 10:47:36;;;;;;;6.33;3.00;;;;;;;1.01;72.49;97490.06;5083167;28;20214;-79
2024/01/16 10:50:05;;;;;;;4.20;2.90;;;;;;;1.17;72.70;97495.47;5085267;28;20212;-79
2024/01/16 10:52:34;;;;;;;4.80;3.10;;;;;;;1.38;72.15;97482.38;5086733;28;20255;-79
2024/01/16 10:55:04;;;;;;;3.80;2.97;;;;;;;1.55;69.45;97460.78;5087313;28;20207;-79
2024/01/16 10:57:33;;;;;;;4.20;3.30;;;;;;;1.63;68.03;97445.66;5084306;28;20666;-81
2024/01/16 11:00:04;;;;;;;3.17;2.57;;;;;;;1.68;66.83;97423.72;5080509;28;20214;-80
2024/01/16 11:02:39;;;;;;;3.83;2.40;;;;;;;1.70;66.43;97421.88;5080575;28;20231;-78
2024/01/16 11:05:07;;;;;;;5.80;2.90;;;;;;;1.81;66.79;97422.25;5085652;28;20191;-80
2024/01/16 11:07:36;;;;;;;4.70;3.00;;;;;;;1.86;67.75;97429.84;5085921;28;20214;-78
2024/01/16 11:10:04;;;;;;;6.17;2.90;;;;;;;1.91;67.25;97427.88;5083647;28;20226;-79
2024/01/16 11:12:34;;;;;;;5.63;2.63;;;;;;;1.99;65.75;97405.75;5081765;28;20238;-78
2024/01/16 11:15:02;;;;;;;5.13;2.70;;;;;;;1.87;65.44;97401.13;5088294;28;20253;-79
2024/01/16 11:17:31;;;;;;;3.67;2.93;;;;;;;1.80;66.21;97404.94;5087289;28;20223;-79
2024/01/16 11:19:58;;;;;;;4.97;3.23;;;;;;;1.82;65.83;97400.47;5083676;28;20207;-78
2024/01/16 11:22:28;;;;;;;4.17;2.63;;;;;;;1.69;66.67;97396.75;5083974;28;20232;-78
2024/01/16 11:25:08;;;;;;;7.60;3.30;;;;;;;1.61;66.72;97404.06;5081676;28;20208;-80
2024/01/16 11:27:37;;;;;;;6.47;3.63;;;;;;;1.48;66.62;97397.72;5082720;28;20439;-79
2024/01/16 11:30:04;;;;;;;5.67;2.70;;;;;;;1.34;67.15;97394.91;5083554;28;20207;-79
2024/01/16 11:32:35;;;;;;;4.33;2.83;;;;;;;1.41;68.34;97401.53;5083811;28;20235;-79